Time;durP1;ratioP1;P1;durP2;ratioP2;P2;SDS_P1;SDS_P2;PMS_P1;PMS_P2;Temp;Humidity;BMP_temperature;BMP_pressure;BME280_temperature;BME280_humidity;BME280_pressure;Samples;Min_cycle;Max_cycle;Signal;HPM_P1;HPM_P2
2020/12/01 00:01:04;;;;;;;1.60;1.33;;;5.50;98.20;;;;;;5080356;28;20489;-77
2020/12/01 00:03:31;;;;;;;1.60;1.20;;;5.50;98.20;;;;;;5086136;28;20959;-76
2020/12/01 00:05:58;;;;;;;1.60;1.30;;;5.50;98.20;;;;;;5087164;28;20554;-77
2020/12/01 00:08:24;;;;;;;1.60;1.33;;;5.50;98.20;;;;;;5084908;28;21178;-76
2020/12/01 00:10:51;;;;;;;1.60;1.30;;;5.50;98.20;;;;;;5085898;28;20532;-76
2020/12/01 00:13:17;;;;;;;1.60;1.20;;;5.50;98.20;;;;;;5088102;28;20880;-76
2020/12/01 00:15:43;;;;;;;1.60;1.30;;;5.50;98.20;;;;;;5082299;28;20493;-76
2020/12/01 00:18:10;;;;;;;1.60;1.30;;;5.50;98.20;;;;;;5078928;28;20454;-76
2020/12/01 00:20:37;;;;;;;1.60;1.33;;;5.50;98.20;;;;;;5085872;28;20532;-76
2020/12/01 00:23:03;;;;;;;1.67;1.43;;;5.50;98.20;;;;;;5085756;28;20579;-76
2020/12/01 00:25:30;;;;;;;1.60;1.30;;;5.50;98.20;;;;;;5075311;28;20532;-76
2020/12/01 00:27:56;;;;;;;1.60;1.30;;;5.50;98.20;;;;;;5083312;28;20515;-76
2020/12/01 00:30:25;;;;;;;1.60;1.30;;;5.60;98.20;;;;;;5086310;28;20526;-76
2020/12/01 00:32:52;;;;;;;1.60;1.30;;;5.60;98.20;;;;;;5081487;28;20496;-76
2020/12/01 00:35:22;;;;;;;1.70;1.40;;;5.60;98.20;;;;;;5083951;28;20844;-77
2020/12/01 00:37:50;;;;;;;1.60;1.40;;;5.50;98.20;;;;;;5084625;28;20457;-76
2020/12/01 00:40:17;;;;;;;1.60;1.43;;;5.60;98.20;;;;;;5082763;28;20544;-75
2020/12/01 00:42:43;;;;;;;1.60;1.30;;;5.50;98.20;;;;;;5085164;28;20528;-75
2020/12/01 00:45:11;;;;;;;1.60;1.40;;;5.60;98.20;;;;;;5082763;28;20481;-75
2020/12/01 00:47:37;;;;;;;1.60;1.40;;;5.60;98.20;;;;;;5086580;28;20484;-76
2020/12/01 00:50:05;;;;;;;1.60;1.30;;;5.60;98.20;;;;;;5079527;28;20488;-75
2020/12/01 00:52:31;;;;;;;1.60;1.30;;;5.60;98.20;;;;;;5083139;28;20543;-76
2020/12/01 00:54:59;;;;;;;1.60;1.40;;;5.50;98.20;;;;;;5086811;28;20496;-75
2020/12/01 00:57:25;;;;;;;1.60;1.30;;;5.50;98.20;;;;;;5089887;28;20484;-76
2020/12/01 00:59:51;;;;;;;1.60;1.30;;;5.50;98.20;;;;;;5084204;28;20504;-75
2020/12/01 01:02:18;;;;;;;1.60;1.30;;;5.50;98.20;;;;;;5089678;28;20955;-76
2020/12/01 01:04:45;;;;;;;1.60;1.40;;;5.50;98.20;;;;;;5102469;22;20747;-79
2020/12/01 01:07:11;;;;;;;1.60;1.20;;;5.50;98.20;;;;;;5075342;28;20521;-79
2020/12/01 01:09:38;;;;;;;1.60;1.27;;;5.50;98.20;;;;;;5075624;28;20766;-80
2020/12/01 01:12:05;;;;;;;1.60;1.33;;;5.50;98.20;;;;;;5074237;28;20947;-78
2020/12/01 01:14:31;;;;;;;1.60;1.40;;;5.50;98.20;;;;;;5073280;28;20512;-79
2020/12/01 01:16:58;;;;;;;1.60;1.30;;;5.50;98.20;;;;;;5069061;28;20479;-79
2020/12/01 01:19:24;;;;;;;1.60;1.30;;;5.50;98.20;;;;;;5071740;28;20531;-79
2020/12/01 01:21:51;;;;;;;1.60;1.50;;;5.50;98.20;;;;;;5070505;28;20489;-79
2020/12/01 01:24:18;;;;;;;1.60;1.30;;;5.50;98.20;;;;;;5065425;28;20510;-79
2020/12/01 01:26:47;;;;;;;1.60;1.30;;;5.60;98.20;;;;;;5070944;28;21015;-79
2020/12/01 01:29:15;;;;;;;1.60;1.20;;;5.60;98.20;;;;;;5073375;28;20512;-79
2020/12/01 01:31:42;;;;;;;1.60;1.40;;;5.60;98.20;;;;;;5068439;28;20837;-79
2020/12/01 01:34:08;;;;;;;1.60;1.20;;;5.60;98.20;;;;;;5070584;28;20517;-79
2020/12/01 01:36:35;;;;;;;1.60;1.40;;;5.60;98.20;;;;;;5075106;28;20785;-79
2020/12/01 01:39:01;;;;;;;1.60;1.30;;;5.60;98.20;;;;;;5076685;28;20500;-79
2020/12/01 01:41:30;;;;;;;1.60;1.30;;;5.60;98.20;;;;;;5066667;28;20466;-79
2020/12/01 01:43:57;;;;;;;1.60;1.20;;;5.60;98.20;;;;;;5073560;28;20473;-79
2020/12/01 01:46:40;;;;;;;1.60;1.30;;;5.60;98.20;;;;;;5071116;28;21497;-79
2020/12/01 01:49:12;;;;;;;1.60;1.30;;;5.60;98.20;;;;;;5067273;28;20521;-78
2020/12/01 01:51:40;;;;;;;1.60;1.40;;;5.60;98.20;;;;;;5069145;28;20450;-79
2020/12/01 01:54:09;;;;;;;1.60;1.20;;;5.70;98.20;;;;;;5071760;28;20477;-79
2020/12/01 01:56:40;;;;;;;1.60;1.43;;;5.70;98.20;;;;;;5073564;28;20458;-79
2020/12/01 01:59:08;;;;;;;1.60;1.30;;;5.70;98.20;;;;;;5072985;28;20472;-79
2020/12/01 02:01:34;;;;;;;1.60;1.30;;;5.70;98.20;;;;;;5073769;28;20562;-78
2020/12/01 02:04:04;;;;;;;1.60;1.40;;;5.70;98.20;;;;;;5075682;28;20867;-79
2020/12/01 02:06:37;;;;;;;1.60;1.30;;;5.70;98.20;;;;;;5076547;28;20509;-79
2020/12/01 02:09:07;;;;;;;1.60;1.30;;;5.70;98.20;;;;;;5068756;28;20952;-78
2020/12/01 02:11:37;;;;;;;1.60;1.30;;;5.70;98.20;;;;;;5071589;28;20490;-79
2020/12/01 02:14:07;;;;;;;1.60;1.30;;;5.70;98.20;;;;;;5075194;28;20506;-78
2020/12/01 02:16:35;;;;;;;1.60;1.30;;;5.70;98.20;;;;;;5069551;28;20467;-79
2020/12/01 02:19:03;;;;;;;1.60;1.30;;;5.70;98.20;;;;;;5072528;28;20454;-78
2020/12/01 02:21:34;;;;;;;1.60;1.30;;;5.70;98.20;;;;;;5074184;28;20458;-78
2020/12/01 02:24:02;;;;;;;1.60;1.30;;;5.70;98.20;;;;;;5069976;28;20478;-79
2020/12/01 02:26:30;;;;;;;1.60;1.40;;;5.70;98.20;;;;;;5067077;28;20521;-80
2020/12/01 02:28:57;;;;;;;1.60;1.30;;;5.70;98.20;;;;;;5073493;28;20556;-79
2020/12/01 02:31:24;;;;;;;1.60;1.30;;;5.80;98.20;;;;;;5075090;28;20454;-80
2020/12/01 02:33:50;;;;;;;1.60;1.30;;;5.80;98.20;;;;;;5073324;28;20528;-80
2020/12/01 02:36:18;;;;;;;1.60;1.37;;;5.80;98.20;;;;;;5068665;28;20886;-79
2020/12/01 02:38:44;;;;;;;1.60;1.30;;;5.80;98.20;;;;;;5072442;28;20478;-80
2020/12/01 02:41:11;;;;;;;1.60;1.20;;;5.80;98.20;;;;;;5073714;28;21114;-79
2020/12/01 02:43:38;;;;;;;1.60;1.20;;;5.80;98.20;;;;;;5064674;28;20486;-79
2020/12/01 02:46:05;;;;;;;1.60;1.40;;;5.80;98.20;;;;;;5068011;28;20482;-79
2020/12/01 02:48:31;;;;;;;1.60;1.30;;;5.80;98.20;;;;;;5065269;28;20484;-79
2020/12/01 02:50:58;;;;;;;1.60;1.33;;;5.80;98.20;;;;;;5060992;28;20489;-79
2020/12/01 02:53:24;;;;;;;1.60;1.40;;;5.80;98.20;;;;;;5068604;28;20561;-79
2020/12/01 02:55:50;;;;;;;1.60;1.30;;;5.80;98.20;;;;;;5067413;28;20486;-79
2020/12/01 02:58:17;;;;;;;1.60;1.30;;;5.90;98.20;;;;;;5072767;28;20477;-79
2020/12/01 03:00:44;;;;;;;1.60;1.30;;;5.90;98.20;;;;;;5069629;28;20459;-79
2020/12/01 03:03:12;;;;;;;1.60;1.30;;;5.90;98.20;;;;;;5065142;28;20481;-79
2020/12/01 03:05:38;;;;;;;1.60;1.30;;;5.90;98.20;;;;;;5070100;28;20511;-79
2020/12/01 03:08:05;;;;;;;1.60;1.27;;;5.90;98.20;;;;;;5063778;28;20466;-79
2020/12/01 03:10:31;;;;;;;1.60;1.27;;;5.90;98.20;;;;;;5063395;28;20898;-79
2020/12/01 03:12:57;;;;;;;1.60;1.20;;;5.90;98.20;;;;;;5069591;28;20488;-78
2020/12/01 03:15:24;;;;;;;1.60;1.20;;;5.90;98.20;;;;;;5068921;28;20505;-78
2020/12/01 03:17:52;;;;;;;1.60;1.30;;;5.90;98.20;;;;;;5067824;28;20477;-78
2020/12/01 03:20:18;;;;;;;1.93;1.73;;;6.00;98.20;;;;;;5066756;28;20523;-78
2020/12/01 03:22:44;;;;;;;1.60;1.20;;;5.90;98.20;;;;;;5070115;28;20511;-78
2020/12/01 03:25:11;;;;;;;1.60;1.50;;;5.90;98.20;;;;;;5071364;28;20527;-78
2020/12/01 03:27:37;;;;;;;1.60;1.37;;;5.90;98.20;;;;;;5068944;28;20520;-78
2020/12/01 03:30:06;;;;;;;1.60;1.30;;;5.90;98.20;;;;;;5066563;28;20564;-78
2020/12/01 03:32:32;;;;;;;1.60;1.40;;;5.90;98.20;;;;;;5068368;28;20520;-77
2020/12/01 03:35:00;;;;;;;1.60;1.30;;;5.90;98.20;;;;;;5070546;28;20508;-77
2020/12/01 03:37:26;;;;;;;1.60;1.30;;;5.90;98.20;;;;;;5070731;28;20745;-77
2020/12/01 03:39:53;;;;;;;1.60;1.43;;;5.90;98.20;;;;;;5071681;28;20482;-77
2020/12/01 03:42:19;;;;;;;1.60;1.40;;;5.90;98.20;;;;;;5066741;28;20512;-78
2020/12/01 03:44:46;;;;;;;1.60;1.30;;;5.90;98.20;;;;;;5071326;28;20509;-77
2020/12/01 03:47:12;;;;;;;1.60;1.30;;;5.90;98.20;;;;;;5069053;28;20486;-77
2020/12/01 03:49:39;;;;;;;1.60;1.30;;;5.90;98.20;;;;;;5069187;28;20981;-77
2020/12/01 03:52:06;;;;;;;1.60;1.30;;;6.00;98.20;;;;;;5066387;28;20496;-77
2020/12/01 03:54:33;;;;;;;1.60;1.30;;;6.00;98.20;;;;;;5067035;28;20543;-77
2020/12/01 03:56:59;;;;;;;1.60;1.30;;;6.00;98.20;;;;;;5070853;28;20968;-77
2020/12/01 03:59:26;;;;;;;1.60;1.30;;;6.00;98.20;;;;;;5069267;28;20498;-77
2020/12/01 04:01:53;;;;;;;1.60;1.40;;;6.00;98.20;;;;;;5068837;28;20988;-77
2020/12/01 04:04:19;;;;;;;1.60;1.37;;;6.00;98.20;;;;;;5070321;28;20543;-77
2020/12/01 04:06:46;;;;;;;1.60;1.30;;;5.90;98.20;;;;;;5071332;28;20717;-77
2020/12/01 04:09:14;;;;;;;1.63;1.47;;;5.90;98.20;;;;;;5066026;28;20492;-77
2020/12/01 04:11:40;;;;;;;1.60;1.30;;;5.90;98.20;;;;;;5070462;28;20648;-78
2020/12/01 04:14:07;;;;;;;1.60;1.30;;;5.90;98.20;;;;;;5072932;28;20485;-78
2020/12/01 04:16:33;;;;;;;1.60;1.40;;;5.90;98.20;;;;;;5073321;28;20512;-79
2020/12/01 04:18:59;;;;;;;1.60;1.30;;;5.90;98.20;;;;;;5064031;28;20873;-79
2020/12/01 04:21:26;;;;;;;1.60;1.40;;;5.90;98.20;;;;;;5070821;28;20482;-78
2020/12/01 04:23:52;;;;;;;1.60;1.47;;;5.90;98.20;;;;;;5068496;28;20481;-79
2020/12/01 04:26:22;;;;;;;1.60;1.30;;;5.90;98.20;;;;;;5068442;28;20494;-80
2020/12/01 04:28:49;;;;;;;1.60;1.30;;;5.90;98.20;;;;;;5067715;28;21086;-79
2020/12/01 04:31:16;;;;;;;1.60;1.30;;;5.90;98.20;;;;;;5074452;28;20494;-79
2020/12/01 04:33:43;;;;;;;1.60;1.30;;;5.90;98.20;;;;;;5077109;28;20485;-78
2020/12/01 04:36:10;;;;;;;1.60;1.30;;;5.80;98.20;;;;;;5078810;28;21039;-78
2020/12/01 04:38:37;;;;;;;1.60;1.33;;;5.90;98.20;;;;;;5069622;28;20461;-79
2020/12/01 04:41:04;;;;;;;1.60;1.30;;;5.80;98.20;;;;;;5077408;28;20458;-79
2020/12/01 04:43:34;;;;;;;1.60;1.20;;;5.80;98.20;;;;;;5078189;28;20532;-80
2020/12/01 04:46:03;;;;;;;1.60;1.30;;;5.80;98.20;;;;;;5068741;28;20462;-79
2020/12/01 04:48:43;;;;;;;1.60;1.40;;;5.90;98.20;;;;;;5067386;28;20503;-80
2020/12/01 04:51:26;;;;;;;1.60;1.43;;;5.90;98.20;;;;;;5066846;28;20999;-79
2020/12/01 04:54:29;;;;;;;1.60;1.43;;;5.90;98.20;;;;;;5064554;28;21007;-79
2020/12/01 04:57:26;;;;;;;1.60;1.43;;;5.90;98.20;;;;;;5070009;28;20461;-78
2020/12/01 05:00:08;;;;;;;1.60;1.40;;;5.90;98.20;;;;;;5075181;28;20490;-79
2020/12/01 05:02:59;;;;;;;1.60;1.40;;;5.90;98.20;;;;;;5069166;28;20633;-80
2020/12/01 05:05:40;;;;;;;1.60;1.40;;;5.90;98.20;;;;;;5071537;28;20525;-78
2020/12/01 05:08:33;;;;;;;1.60;1.30;;;5.90;98.20;;;;;;5075276;28;20516;-79
2020/12/01 05:11:05;;;;;;;1.60;1.30;;;5.90;98.20;;;;;;5074221;28;20462;-78
2020/12/01 05:13:34;;;;;;;1.60;1.30;;;5.90;98.20;;;;;;5071198;28;21045;-78
2020/12/01 05:16:14;;;;;;;1.60;1.30;;;5.90;98.20;;;;;;5072872;28;20876;-77
2020/12/01 05:18:41;;;;;;;1.60;1.27;;;6.00;98.20;;;;;;5070908;28;20511;-78
2020/12/01 05:21:10;;;;;;;1.60;1.30;;;6.00;98.20;;;;;;5068052;28;20467;-77
2020/12/01 05:23:40;;;;;;;1.60;1.40;;;6.00;98.20;;;;;;5068253;28;20504;-79
2020/12/01 05:26:09;;;;;;;1.60;1.20;;;6.00;98.20;;;;;;5072623;28;20468;-78
2020/12/01 05:28:43;;;;;;;1.60;1.50;;;6.00;98.20;;;;;;5074746;28;20523;-79
2020/12/01 05:31:11;;;;;;;1.60;1.30;;;5.90;98.20;;;;;;5069241;28;20469;-78
2020/12/01 05:33:38;;;;;;;1.60;1.30;;;5.80;98.20;;;;;;5072634;28;20481;-78
2020/12/01 05:36:16;;;;;;;1.60;1.30;;;5.80;98.20;;;;;;5072821;28;21066;-78
2020/12/01 05:38:43;;;;;;;1.60;1.50;;;5.80;98.20;;;;;;5064608;28;20465;-78
2020/12/01 05:41:22;;;;;;;1.60;1.30;;;5.80;98.20;;;;;;5067419;28;20531;-78
2020/12/01 05:43:55;;;;;;;1.60;1.30;;;5.70;98.20;;;;;;5073110;28;20531;-77
2020/12/01 05:46:31;;;;;;;1.60;1.43;;;5.70;98.20;;;;;;5068722;28;20481;-78
2020/12/01 05:49:25;;;;;;;1.60;1.30;;;5.70;98.20;;;;;;5062679;28;20486;-77
2020/12/01 05:52:00;;;;;;;1.60;1.30;;;5.70;98.20;;;;;;5071913;28;20508;-78
2020/12/01 05:54:36;;;;;;;1.70;1.57;;;5.60;98.20;;;;;;5074972;28;20481;-77
2020/12/01 05:57:03;;;;;;;1.60;1.33;;;5.60;98.20;;;;;;5063444;28;20461;-78
2020/12/01 05:59:30;;;;;;;1.60;1.30;;;5.50;98.20;;;;;;5074592;28;20523;-79
2020/12/01 06:02:04;;;;;;;1.60;1.30;;;5.50;98.20;;;;;;5076220;28;20500;-79
2020/12/01 06:04:32;;;;;;;1.60;1.30;;;5.50;98.20;;;;;;5071705;28;20528;-78
2020/12/01 06:07:16;;;;;;;1.60;1.40;;;5.50;98.20;;;;;;5067777;28;20486;-77
2020/12/01 06:10:15;;;;;;;1.60;1.30;;;5.50;98.20;;;;;;5067354;28;20488;-78
2020/12/01 06:13:09;;;;;;;1.60;1.30;;;5.50;98.20;;;;;;5066864;28;20683;-78
2020/12/01 06:15:40;;;;;;;1.60;1.30;;;5.50;98.20;;;;;;5064975;28;20592;-78
2020/12/01 06:18:17;;;;;;;1.60;1.30;;;5.50;98.20;;;;;;5067856;28;20786;-78
2020/12/01 06:20:51;;;;;;;2.33;2.13;;;5.50;98.20;;;;;;5070333;28;20506;-78
2020/12/01 06:23:52;;;;;;;1.60;1.43;;;5.50;98.20;;;;;;5067431;28;20473;-78
2020/12/01 06:26:44;;;;;;;1.97;1.77;;;5.50;98.20;;;;;;5065489;28;20484;-78
2020/12/01 06:29:52;;;;;;;1.60;1.30;;;5.50;98.20;;;;;;5071586;28;20515;-78
2020/12/01 06:33:13;;;;;;;1.60;1.50;;;5.50;98.20;;;;;;5030576;28;20515;-78
2020/12/01 06:36:15;;;;;;;1.60;1.30;;;5.60;98.20;;;;;;5026341;28;20454;-78
2020/12/01 06:38:53;;;;;;;1.60;1.50;;;5.60;98.20;;;;;;5064057;28;20492;-78
2020/12/01 06:41:22;;;;;;;1.60;1.43;;;5.60;98.20;;;;;;5071855;28;20476;-78
2020/12/01 06:43:51;;;;;;;1.60;1.40;;;5.60;98.20;;;;;;5068530;28;20948;-78
2020/12/01 06:46:37;;;;;;;1.60;1.30;;;5.60;98.20;;;;;;5067704;28;20579;-77
2020/12/01 06:49:04;;;;;;;1.60;1.30;;;5.60;98.20;;;;;;5060521;28;20469;-78
2020/12/01 06:51:32;;;;;;;1.60;1.40;;;5.60;98.20;;;;;;5058131;28;20497;-77
2020/12/01 06:54:07;;;;;;;1.60;1.30;;;5.60;98.20;;;;;;5061146;28;20520;-78
2020/12/01 06:56:33;;;;;;;1.60;1.33;;;5.60;98.20;;;;;;5064404;28;20462;-77
2020/12/01 06:59:07;;;;;;;1.60;1.20;;;5.60;98.20;;;;;;5068232;28;20514;-78
2020/12/01 07:01:35;;;;;;;1.60;1.30;;;5.60;98.20;;;;;;5062505;28;20458;-78
2020/12/01 07:04:19;;;;;;;1.60;1.40;;;5.70;98.20;;;;;;5063848;28;20569;-78
2020/12/01 07:06:49;;;;;;;1.63;1.53;;;5.70;98.20;;;;;;5056640;28;21010;-79
2020/12/01 07:09:19;;;;;;;1.60;1.30;;;5.70;98.20;;;;;;5068560;28;20461;-79
2020/12/01 07:12:04;;;;;;;1.60;1.40;;;5.70;98.20;;;;;;5066245;28;20727;-78
2020/12/01 07:14:43;;;;;;;1.60;1.30;;;5.70;98.20;;;;;;5059495;28;20567;-79
2020/12/01 07:17:28;;;;;;;1.60;1.30;;;5.80;98.20;;;;;;5058025;28;20489;-79
2020/12/01 07:19:58;;;;;;;1.60;1.40;;;5.80;98.20;;;;;;5055138;28;20571;-79
2020/12/01 07:22:35;;;;;;;1.60;1.40;;;5.80;98.20;;;;;;5053543;28;20566;-79
2020/12/01 07:25:13;;;;;;;1.60;1.40;;;5.80;98.20;;;;;;5047501;28;20798;-78
2020/12/01 07:27:58;;;;;;;1.60;1.30;;;5.80;98.20;;;;;;5059638;28;20493;-79
2020/12/01 07:30:27;;;;;;;1.60;1.30;;;5.80;98.20;;;;;;5063004;28;20523;-79
2020/12/01 07:33:04;;;;;;;1.60;1.47;;;5.90;98.20;;;;;;5064919;28;20466;-79
2020/12/01 07:35:37;;;;;;;1.60;1.30;;;5.90;98.20;;;;;;5058975;28;20465;-78
2020/12/01 07:38:26;;;;;;;1.60;1.27;;;5.90;98.20;;;;;;5063533;28;20548;-77
2020/12/01 07:40:57;;;;;;;1.60;1.30;;;5.90;98.20;;;;;;5066135;28;20837;-78
2020/12/01 07:43:23;;;;;;;1.60;1.50;;;5.90;98.20;;;;;;5054769;28;20537;-79
2020/12/01 07:45:59;;;;;;;3.43;3.13;;;5.90;98.20;;;;;;5061747;28;20465;-78
2020/12/01 07:48:26;;;;;;;1.60;1.30;;;5.90;98.20;;;;;;5056950;28;20886;-79
2020/12/01 07:51:03;;;;;;;1.60;1.40;;;6.00;98.20;;;;;;5054429;28;20558;-78
2020/12/01 07:53:34;;;;;;;1.60;1.30;;;6.00;98.20;;;;;;5056293;28;20504;-78
2020/12/01 07:56:04;;;;;;;1.60;1.40;;;6.00;98.20;;;;;;5059908;28;20458;-77
2020/12/01 07:58:31;;;;;;;1.60;1.30;;;6.00;98.20;;;;;;5059304;28;20726;-79
2020/12/01 08:01:01;;;;;;;1.60;1.30;;;6.00;98.20;;;;;;5056169;28;20505;-78
2020/12/01 08:03:30;;;;;;;1.60;1.40;;;6.00;98.20;;;;;;5061392;28;20529;-78
2020/12/01 08:06:02;;;;;;;1.60;1.30;;;6.00;98.20;;;;;;5067799;28;20465;-78
2020/12/01 08:08:33;;;;;;;1.60;1.30;;;6.00;98.20;;;;;;5061935;28;20477;-78
2020/12/01 08:11:05;;;;;;;1.60;1.30;;;6.00;98.20;;;;;;5064999;28;20461;-78
2020/12/01 08:13:33;;;;;;;1.60;1.30;;;6.10;98.20;;;;;;5065924;28;20818;-78
2020/12/01 08:16:02;;;;;;;1.60;1.40;;;6.10;98.20;;;;;;5065128;28;20461;-78
2020/12/01 08:18:30;;;;;;;1.60;1.30;;;6.10;98.20;;;;;;5057859;28;20465;-77
2020/12/01 08:20:57;;;;;;;1.60;1.40;;;6.10;98.20;;;;;;5062702;28;20550;-78
2020/12/01 08:23:28;;;;;;;1.60;1.30;;;6.20;98.20;;;;;;5066946;28;20923;-78
2020/12/01 08:26:03;;;;;;;1.60;1.23;;;6.20;98.20;;;;;;5059178;28;20963;-78
2020/12/01 08:28:36;;;;;;;1.63;1.47;;;6.20;98.20;;;;;;5066551;28;20513;-78
2020/12/01 08:31:11;;;;;;;1.60;1.20;;;6.20;98.20;;;;;;5063532;28;20497;-78
2020/12/01 08:34:21;;;;;;;1.60;1.30;;;6.20;98.20;;;;;;5064673;28;20512;-78
2020/12/01 08:37:01;;;;;;;1.60;1.20;;;6.30;98.20;;;;;;5023768;28;20466;-78
2020/12/01 08:39:46;;;;;;;1.60;1.20;;;6.30;98.20;;;;;;5025481;28;20464;-78
2020/12/01 08:42:27;;;;;;;1.60;1.30;;;6.30;98.20;;;;;;5056090;28;20530;-78
2020/12/01 08:45:21;;;;;;;1.70;1.60;;;6.40;98.20;;;;;;5060288;28;20541;-79
2020/12/01 08:47:49;;;;;;;1.60;1.30;;;6.40;98.20;;;;;;5062085;28;20569;-78
2020/12/01 08:50:22;;;;;;;1.60;1.20;;;6.40;98.20;;;;;;5064030;28;20549;-79
2020/12/01 08:52:49;;;;;;;1.60;1.30;;;6.40;98.20;;;;;;5063360;28;20565;-78
2020/12/01 08:55:25;;;;;;;1.60;1.30;;;6.50;98.20;;;;;;5062454;28;20543;-79
2020/12/01 08:57:59;;;;;;;1.60;1.40;;;6.50;98.20;;;;;;5062064;28;20453;-79
2020/12/01 09:00:26;;;;;;;1.70;1.43;;;6.50;98.20;;;;;;5066042;28;20552;-78
2020/12/01 09:02:54;;;;;;;1.60;1.30;;;6.50;98.20;;;;;;5060934;28;20467;-79
2020/12/01 09:05:27;;;;;;;1.60;1.30;;;6.60;98.20;;;;;;5062306;28;20501;-78
2020/12/01 09:08:19;;;;;;;1.60;1.30;;;6.60;98.20;;;;;;5067196;28;20497;-79
2020/12/01 09:10:46;;;;;;;1.60;1.20;;;6.60;98.20;;;;;;5064687;28;20458;-79
2020/12/01 09:13:21;;;;;;;1.60;1.20;;;6.70;98.20;;;;;;5063914;28;20470;-78
2020/12/01 09:16:03;;;;;;;1.60;1.30;;;6.70;98.20;;;;;;5067231;28;20548;-79
2020/12/01 09:18:44;;;;;;;1.67;1.40;;;6.80;98.20;;;;;;5065676;28;20454;-79
2020/12/01 09:24:00;;;;;;;1.60;1.20;;;7.00;98.20;;;;;;5061477;28;20485;-79
2020/12/01 09:26:27;;;;;;;1.60;1.30;;;7.00;98.20;;;;;;5063739;28;20556;-79
2020/12/01 09:28:54;;;;;;;1.67;1.33;;;7.10;98.20;;;;;;5064298;28;20473;-78
2020/12/01 09:31:25;;;;;;;1.60;1.30;;;7.10;98.20;;;;;;5057029;28;20493;-79
2020/12/01 09:33:55;;;;;;;18.47;5.90;;;7.10;98.20;;;;;;5064791;28;20485;-78
2020/12/01 09:36:23;;;;;;;1.60;1.30;;;7.20;98.20;;;;;;5063329;28;20822;-79
2020/12/01 09:38:50;;;;;;;1.60;1.30;;;7.20;98.20;;;;;;5061242;28;20494;-78
2020/12/01 09:41:19;;;;;;;1.60;1.30;;;7.30;98.20;;;;;;5063058;28;20469;-78
2020/12/01 09:43:50;;;;;;;1.60;1.30;;;7.30;98.20;;;;;;5065792;28;20518;-79
2020/12/01 09:46:22;;;;;;;1.60;1.40;;;7.30;98.20;;;;;;5067880;28;20461;-79
2020/12/01 09:48:49;;;;;;;1.60;1.20;;;7.50;98.20;;;;;;5059461;28;21008;-78
2020/12/01 09:51:16;;;;;;;1.60;1.20;;;7.50;98.20;;;;;;5062393;28;20473;-79
2020/12/01 09:53:55;;;;;;;1.60;1.20;;;7.60;98.20;;;;;;5063924;28;20926;-80
2020/12/01 09:56:39;;;;;;;1.60;1.20;;;7.70;98.20;;;;;;5063638;28;20914;-78
2020/12/01 10:07:50;;;;;;;1.60;1.20;;;8.10;98.20;;;;;;5059402;28;20502;-78
2020/12/01 10:10:29;;;;;;;1.60;1.30;;;8.10;98.20;;;;;;5067235;28;20555;-79
2020/12/01 10:13:00;;;;;;;1.60;1.40;;;8.20;98.20;;;;;;5066958;28;20472;-79
2020/12/01 10:18:49;;;;;;;1.60;1.20;;;8.30;98.20;;;;;;5064877;28;20454;-79
2020/12/01 10:27:37;;;;;;;1.60;1.20;;;8.60;98.20;;;;;;5061326;28;20844;-80
2020/12/01 10:35:32;;;;;;;1.67;1.30;;;8.80;98.20;;;;;;5063965;28;20449;-78
2020/12/01 10:38:00;;;;;;;1.60;1.20;;;8.80;98.20;;;;;;5065655;28;20493;-79
2020/12/01 10:40:29;;;;;;;1.67;1.30;;;8.80;98.20;;;;;;5071032;28;20493;-79
2020/12/01 10:42:56;;;;;;;1.60;1.10;;;8.90;98.20;;;;;;5064786;28;20943;-79
2020/12/01 10:45:25;;;;;;;1.60;1.10;;;8.90;98.20;;;;;;5059960;28;20494;-79
2020/12/01 10:47:51;;;;;;;1.63;1.27;;;9.00;98.20;;;;;;5060447;28;20542;-78
2020/12/01 10:50:22;;;;;;;1.60;1.20;;;9.00;98.20;;;;;;5058728;28;20505;-79
2020/12/01 10:52:48;;;;;;;1.60;1.17;;;9.00;98.20;;;;;;5066244;28;20563;-79
2020/12/01 10:55:16;;;;;;;1.60;1.10;;;9.10;98.20;;;;;;5061774;28;20980;-79
2020/12/01 10:57:43;;;;;;;1.60;1.10;;;9.10;98.20;;;;;;5068919;28;20542;-79
2020/12/01 11:00:11;;;;;;;1.60;1.10;;;9.10;98.20;;;;;;5064914;28;20492;-79
2020/12/01 11:02:37;;;;;;;1.60;1.20;;;9.10;98.20;;;;;;5069438;28;20557;-79
2020/12/01 11:05:07;;;;;;;1.60;1.10;;;9.00;98.20;;;;;;5068860;28;20517;-80
2020/12/01 11:07:33;;;;;;;1.60;1.20;;;9.00;98.20;;;;;;5067823;28;20517;-79
2020/12/01 11:10:04;;;;;;;1.60;1.20;;;8.90;98.20;;;;;;5067238;28;20484;-80
2020/12/01 11:12:36;;;;;;;1.60;1.20;;;8.80;98.20;;;;;;5065600;28;20574;-80
2020/12/01 11:15:06;;;;;;;1.60;1.30;;;8.80;98.20;;;;;;5065012;28;20570;-81
2020/12/01 11:17:32;;;;;;;1.60;1.20;;;8.70;98.20;;;;;;5062850;28;21235;-80
2020/12/01 11:19:59;;;;;;;1.60;1.20;;;8.60;98.20;;;;;;5062928;28;20462;-81
2020/12/01 11:22:25;;;;;;;1.60;1.10;;;8.50;98.20;;;;;;5070330;28;20529;-81
2020/12/01 11:24:52;;;;;;;1.60;1.20;;;8.50;98.20;;;;;;5058103;28;20515;-82
2020/12/01 11:27:19;;;;;;;1.60;1.10;;;8.50;98.20;;;;;;5067875;28;20568;-83
2020/12/01 11:29:46;;;;;;;1.60;1.10;;;8.40;98.20;;;;;;5068495;28;20996;-82
2020/12/01 11:32:13;;;;;;;1.60;1.20;;;8.40;98.20;;;;;;5068532;28;20919;-81
2020/12/01 11:34:40;;;;;;;1.60;1.33;;;8.40;98.20;;;;;;5069094;28;20481;-80
2020/12/01 11:37:07;;;;;;;1.60;1.20;;;8.40;98.20;;;;;;5062469;28;20487;-79
2020/12/01 11:39:33;;;;;;;1.60;1.10;;;8.40;98.20;;;;;;5065515;28;20803;-78
2020/12/01 11:42:01;;;;;;;1.60;1.10;;;8.40;98.20;;;;;;5062908;28;20494;-79
2020/12/01 11:44:27;;;;;;;1.60;1.20;;;8.40;98.20;;;;;;5061881;28;20494;-80
2020/12/01 11:46:57;;;;;;;1.60;1.30;;;8.50;98.20;;;;;;5060731;28;20466;-80
2020/12/01 11:49:25;;;;;;;1.60;1.40;;;8.50;98.20;;;;;;5060486;28;20845;-80
2020/12/01 11:51:52;;;;;;;1.60;1.20;;;8.50;98.20;;;;;;5068394;28;20517;-80
2020/12/01 11:54:20;;;;;;;1.60;1.20;;;8.50;98.20;;;;;;5064242;28;20490;-80
2020/12/01 11:56:47;;;;;;;1.60;1.40;;;8.40;98.20;;;;;;5060899;28;20896;-79
2020/12/01 11:59:15;;;;;;;1.60;1.20;;;8.50;98.20;;;;;;5066450;28;20498;-78
2020/12/01 12:01:41;;;;;;;1.60;1.20;;;8.50;98.20;;;;;;5065157;28;20835;-79
2020/12/01 12:04:08;;;;;;;1.60;1.20;;;8.50;98.20;;;;;;5064961;28;20513;-79
2020/12/01 12:06:36;;;;;;;1.60;1.20;;;8.50;98.20;;;;;;5061758;28;20551;-78
2020/12/01 12:09:04;;;;;;;1.60;1.20;;;8.50;98.20;;;;;;5064629;28;20482;-78
2020/12/01 12:11:30;;;;;;;1.60;1.30;;;8.50;98.20;;;;;;5065945;28;20515;-78
2020/12/01 12:13:56;;;;;;;1.60;1.20;;;8.60;98.20;;;;;;5062534;28;20569;-79
2020/12/01 12:16:23;;;;;;;1.60;1.27;;;8.60;98.20;;;;;;5062245;28;20493;-79
2020/12/01 12:18:49;;;;;;;1.60;1.30;;;8.60;98.20;;;;;;5047214;28;20567;-79
2020/12/01 12:21:18;;;;;;;1.60;1.30;;;8.60;98.20;;;;;;5059870;28;20457;-79
2020/12/01 12:23:46;;;;;;;1.60;1.20;;;8.60;98.20;;;;;;5064202;28;20489;-80
2020/12/01 12:26:13;;;;;;;1.60;1.10;;;8.60;98.20;;;;;;5065612;28;20508;-80
2020/12/01 12:28:39;;;;;;;1.60;1.20;;;8.60;98.20;;;;;;5065935;28;20613;-79
2020/12/01 12:31:06;;;;;;;1.60;1.30;;;8.60;98.20;;;;;;5068568;28;20531;-80
2020/12/01 12:33:33;;;;;;;1.60;1.30;;;8.60;98.20;;;;;;5062132;28;20513;-79
2020/12/01 12:36:00;;;;;;;1.60;1.30;;;8.60;98.20;;;;;;5067581;28;20550;-80
2020/12/01 12:38:28;;;;;;;1.60;1.30;;;8.60;98.20;;;;;;5071266;28;20897;-80
2020/12/01 12:40:56;;;;;;;1.60;1.30;;;8.60;98.20;;;;;;5064417;28;20476;-80
2020/12/01 12:43:25;;;;;;;1.60;1.27;;;8.70;98.20;;;;;;5065033;28;20953;-80
2020/12/01 12:45:51;;;;;;;1.60;1.20;;;8.70;98.20;;;;;;5069117;28;20501;-80
2020/12/01 12:48:19;;;;;;;1.60;1.20;;;8.70;98.20;;;;;;5065952;28;20482;-80
2020/12/01 12:50:45;;;;;;;1.60;1.20;;;8.70;98.20;;;;;;5069636;28;20864;-81
2020/12/01 12:53:12;;;;;;;1.60;1.20;;;8.70;98.20;;;;;;5062513;28;20474;-79
2020/12/01 12:55:38;;;;;;;1.60;1.20;;;8.70;98.20;;;;;;5066013;28;20459;-80
2020/12/01 12:58:06;;;;;;;1.60;1.20;;;8.70;98.20;;;;;;5064532;28;20738;-80
2020/12/01 13:00:33;;;;;;;1.60;1.27;;;8.70;98.20;;;;;;5066546;28;20510;-79
2020/12/01 13:03:00;;;;;;;1.60;1.20;;;8.70;98.20;;;;;;5067531;28;20490;-79
2020/12/01 13:05:26;;;;;;;1.60;1.20;;;8.70;98.20;;;;;;5067864;28;20480;-79
2020/12/01 13:07:53;;;;;;;1.60;1.20;;;8.70;98.20;;;;;;5071251;28;20499;-80
2020/12/01 13:10:20;;;;;;;1.60;1.20;;;8.70;98.20;;;;;;5067307;28;20516;-80
2020/12/01 13:12:46;;;;;;;1.60;1.10;;;8.70;98.20;;;;;;5067587;28;20809;-77
2020/12/01 13:15:14;;;;;;;1.60;1.20;;;8.60;98.20;;;;;;5067950;28;20825;-78
2020/12/01 13:17:41;;;;;;;1.60;1.20;;;8.60;98.20;;;;;;5060510;28;20529;-78
2020/12/01 13:20:13;;;;;;;1.60;1.10;;;8.60;98.20;;;;;;5063377;28;20454;-78
2020/12/01 13:22:40;;;;;;;1.60;1.40;;;8.60;98.20;;;;;;5067614;28;20498;-78
2020/12/01 13:25:07;;;;;;;1.67;1.33;;;8.60;98.20;;;;;;5065688;28;20984;-80
2020/12/01 13:27:33;;;;;;;1.60;1.10;;;8.60;98.20;;;;;;5066215;28;20883;-79
2020/12/01 13:29:59;;;;;;;1.60;1.23;;;8.50;98.20;;;;;;5068131;28;20969;-78
2020/12/01 13:32:27;;;;;;;1.60;1.10;;;8.50;98.20;;;;;;5069408;28;20515;-78
2020/12/01 13:34:53;;;;;;;1.60;1.40;;;8.50;98.20;;;;;;5068077;28;20481;-78
2020/12/01 13:37:20;;;;;;;1.60;1.20;;;8.50;98.20;;;;;;5063842;28;20462;-78
2020/12/01 13:39:46;;;;;;;1.60;1.10;;;8.50;98.20;;;;;;5065254;28;20454;-79
2020/12/01 13:42:13;;;;;;;2.17;1.83;;;8.50;98.20;;;;;;5069518;28;20473;-78